sensor_id;sensor_type;location;lat;lon;timestamp;temperature;humidity
4090;DHT22;2059;48.538;12.146;2022-07-04T00:02:52;22.30;91.60
4090;DHT22;2059;48.538;12.146;2022-07-04T00:07:55;22.40;91.40
4090;DHT22;2059;48.538;12.146;2022-07-04T00:12:57;22.40;91.50
4090;DHT22;2059;48.538;12.146;2022-07-04T00:17:59;22.20;91.40
4090;DHT22;2059;48.538;12.146;2022-07-04T00:23:03;22.30;91.20
4090;DHT22;2059;48.538;12.146;2022-07-04T00:28:04;22.20;91.40
4090;DHT22;2059;48.538;12.146;2022-07-04T00:33:11;22.10;92.20
4090;DHT22;2059;48.538;12.146;2022-07-04T00:38:15;22.20;92.20
4090;DHT22;2059;48.538;12.146;2022-07-04T00:43:22;22.10;92.50
4090;DHT22;2059;48.538;12.146;2022-07-04T00:48:24;22.00;92.50
4090;DHT22;2059;48.538;12.146;2022-07-04T00:53:27;21.90;92.90
4090;DHT22;2059;48.538;12.146;2022-07-04T00:58:30;21.80;92.90
4090;DHT22;2059;48.538;12.146;2022-07-04T01:03:32;21.80;92.90
4090;DHT22;2059;48.538;12.146;2022-07-04T01:08:35;21.90;93.40
4090;DHT22;2059;48.538;12.146;2022-07-04T01:13:38;21.80;93.70
4090;DHT22;2059;48.538;12.146;2022-07-04T01:18:41;21.80;94.40
4090;DHT22;2059;48.538;12.146;2022-07-04T01:23:45;21.80;94.20
4090;DHT22;2059;48.538;12.146;2022-07-04T01:28:47;21.90;94.20
4090;DHT22;2059;48.538;12.146;2022-07-04T01:33:48;21.90;94.60
4090;DHT22;2059;48.538;12.146;2022-07-04T01:38:52;21.70;95.30
4090;DHT22;2059;48.538;12.146;2022-07-04T01:43:54;21.70;95.60
4090;DHT22;2059;48.538;12.146;2022-07-04T01:48:56;21.70;95.80
4090;DHT22;2059;48.538;12.146;2022-07-04T01:54:00;21.70;96.10
4090;DHT22;2059;48.538;12.146;2022-07-04T01:59:02;21.70;96.10
4090;DHT22;2059;48.538;12.146;2022-07-04T02:04:05;21.80;96.00
4090;DHT22;2059;48.538;12.146;2022-07-04T02:09:09;21.70;96.50
4090;DHT22;2059;48.538;12.146;2022-07-04T02:14:17;21.80;96.20
4090;DHT22;2059;48.538;12.146;2022-07-04T02:19:19;21.80;96.20
4090;DHT22;2059;48.538;12.146;2022-07-04T02:24:22;21.70;96.50
4090;DHT22;2059;48.538;12.146;2022-07-04T02:29:24;21.70;96.20
4090;DHT22;2059;48.538;12.146;2022-07-04T02:34:26;21.70;96.30
4090;DHT22;2059;48.538;12.146;2022-07-04T02:39:29;21.70;96.40
4090;DHT22;2059;48.538;12.146;2022-07-04T02:44:31;21.80;96.50
4090;DHT22;2059;48.538;12.146;2022-07-04T02:49:33;21.80;96.40
4090;DHT22;2059;48.538;12.146;2022-07-04T02:54:36;21.80;96.40
4090;DHT22;2059;48.538;12.146;2022-07-04T02:59:38;21.80;96.40
4090;DHT22;2059;48.538;12.146;2022-07-04T03:04:40;21.80;96.30
4090;DHT22;2059;48.538;12.146;2022-07-04T03:09:43;21.80;96.00
4090;DHT22;2059;48.538;12.146;2022-07-04T03:14:44;21.90;95.90
4090;DHT22;2059;48.538;12.146;2022-07-04T03:19:46;22.00;95.70
4090;DHT22;2059;48.538;12.146;2022-07-04T03:24:50;21.90;95.70
4090;DHT22;2059;48.538;12.146;2022-07-04T03:29:51;22.00;95.70
4090;DHT22;2059;48.538;12.146;2022-07-04T03:34:53;21.90;95.80
4090;DHT22;2059;48.538;12.146;2022-07-04T03:39:56;21.90;96.00
4090;DHT22;2059;48.538;12.146;2022-07-04T03:44:58;22.00;95.90
4090;DHT22;2059;48.538;12.146;2022-07-04T03:50:00;22.10;95.90
4090;DHT22;2059;48.538;12.146;2022-07-04T03:55:04;22.00;95.90
4090;DHT22;2059;48.538;12.146;2022-07-04T04:00:07;22.10;96.00
4090;DHT22;2059;48.538;12.146;2022-07-04T04:05:10;22.10;96.00
4090;DHT22;2059;48.538;12.146;2022-07-04T04:10:32;22.20;96.50
4090;DHT22;2059;48.538;12.146;2022-07-04T04:15:34;22.30;96.10
4090;DHT22;2059;48.538;12.146;2022-07-04T04:20:36;22.30;96.20
4090;DHT22;2059;48.538;12.146;2022-07-04T04:25:39;22.40;96.10
4090;DHT22;2059;48.538;12.146;2022-07-04T04:30:41;22.30;96.40
4090;DHT22;2059;48.538;12.146;2022-07-04T04:35:43;22.30;96.60
4090;DHT22;2059;48.538;12.146;2022-07-04T04:40:46;22.40;96.60
4090;DHT22;2059;48.538;12.146;2022-07-04T04:45:48;22.40;96.60
4090;DHT22;2059;48.538;12.146;2022-07-04T04:50:50;22.40;96.80
4090;DHT22;2059;48.538;12.146;2022-07-04T04:55:53;22.40;96.60
4090;DHT22;2059;48.538;12.146;2022-07-04T05:00:55;22.50;97.00
4090;DHT22;2059;48.538;12.146;2022-07-04T05:05:57;22.40;97.10
4090;DHT22;2059;48.538;12.146;2022-07-04T05:11:00;22.40;97.20
4090;DHT22;2059;48.538;12.146;2022-07-04T05:16:03;22.30;97.40
4090;DHT22;2059;48.538;12.146;2022-07-04T05:21:05;22.30;97.50
4090;DHT22;2059;48.538;12.146;2022-07-04T05:26:08;22.30;97.80
4090;DHT22;2059;48.538;12.146;2022-07-04T05:31:10;22.30;97.90
4090;DHT22;2059;48.538;12.146;2022-07-04T05:36:12;22.40;97.90
4090;DHT22;2059;48.538;12.146;2022-07-04T05:41:16;22.50;97.80
4090;DHT22;2059;48.538;12.146;2022-07-04T05:46:18;22.80;97.60
4090;DHT22;2059;48.538;12.146;2022-07-04T05:51:20;23.10;97.00
4090;DHT22;2059;48.538;12.146;2022-07-04T05:56:23;23.30;97.00
4090;DHT22;2059;48.538;12.146;2022-07-04T06:01:25;23.60;96.60
4090;DHT22;2059;48.538;12.146;2022-07-04T06:06:27;23.70;96.00
4090;DHT22;2059;48.538;12.146;2022-07-04T06:11:31;23.70;96.40
4090;DHT22;2059;48.538;12.146;2022-07-04T06:16:35;23.80;96.20
4090;DHT22;2059;48.538;12.146;2022-07-04T06:21:37;23.90;96.40
4090;DHT22;2059;48.538;12.146;2022-07-04T06:26:40;24.00;96.60
4090;DHT22;2059;48.538;12.146;2022-07-04T06:31:42;24.10;96.60
4090;DHT22;2059;48.538;12.146;2022-07-04T06:36:44;24.20;96.00
4090;DHT22;2059;48.538;12.146;2022-07-04T06:41:48;24.20;95.70
4090;DHT22;2059;48.538;12.146;2022-07-04T06:46:50;24.30;95.50
4090;DHT22;2059;48.538;12.146;2022-07-04T06:51:52;24.40;95.80
4090;DHT22;2059;48.538;12.146;2022-07-04T06:56:55;24.60;95.70
4090;DHT22;2059;48.538;12.146;2022-07-04T07:01:57;24.80;95.40
4090;DHT22;2059;48.538;12.146;2022-07-04T07:06:59;25.20;95.10
4090;DHT22;2059;48.538;12.146;2022-07-04T07:12:02;25.30;94.90
4090;DHT22;2059;48.538;12.146;2022-07-04T07:17:05;25.70;94.60
4090;DHT22;2059;48.538;12.146;2022-07-04T07:22:06;25.90;94.10
4090;DHT22;2059;48.538;12.146;2022-07-04T07:27:10;25.90;93.70
4090;DHT22;2059;48.538;12.146;2022-07-04T07:32:12;25.80;93.80
4090;DHT22;2059;48.538;12.146;2022-07-04T07:37:14;25.70;93.80
4090;DHT22;2059;48.538;12.146;2022-07-04T07:42:19;25.70;93.80
4090;DHT22;2059;48.538;12.146;2022-07-04T07:47:21;25.30;94.20
4090;DHT22;2059;48.538;12.146;2022-07-04T07:52:23;25.50;94.40
4090;DHT22;2059;48.538;12.146;2022-07-04T07:57:26;25.40;94.10
4090;DHT22;2059;48.538;12.146;2022-07-04T08:02:28;25.40;94.30
4090;DHT22;2059;48.538;12.146;2022-07-04T08:07:44;25.40;94.40
4090;DHT22;2059;48.538;12.146;2022-07-04T08:12:48;25.40;94.40
4090;DHT22;2059;48.538;12.146;2022-07-04T08:17:51;25.30;94.60
4090;DHT22;2059;48.538;12.146;2022-07-04T08:22:53;25.20;95.00
4090;DHT22;2059;48.538;12.146;2022-07-04T08:27:57;25.20;94.80
4090;DHT22;2059;48.538;12.146;2022-07-04T08:32:59;25.10;94.90
4090;DHT22;2059;48.538;12.146;2022-07-04T08:38:01;25.10;94.80
4090;DHT22;2059;48.538;12.146;2022-07-04T08:43:04;25.20;95.00
4090;DHT22;2059;48.538;12.146;2022-07-04T08:48:08;25.40;95.00
4090;DHT22;2059;48.538;12.146;2022-07-04T08:53:12;25.50;95.20
4090;DHT22;2059;48.538;12.146;2022-07-04T08:58:15;25.60;95.30
4090;DHT22;2059;48.538;12.146;2022-07-04T09:03:31;25.80;94.90
4090;DHT22;2059;48.538;12.146;2022-07-04T09:08:33;26.20;94.10
4090;DHT22;2059;48.538;12.146;2022-07-04T09:13:37;26.10;93.50
4090;DHT22;2059;48.538;12.146;2022-07-04T09:18:39;26.10;93.50
4090;DHT22;2059;48.538;12.146;2022-07-04T09:23:42;26.40;93.40
4090;DHT22;2059;48.538;12.146;2022-07-04T09:28:51;26.50;92.60
4090;DHT22;2059;48.538;12.146;2022-07-04T09:33:54;26.90;92.20
4090;DHT22;2059;48.538;12.146;2022-07-04T09:39:05;27.00;91.70
4090;DHT22;2059;48.538;12.146;2022-07-04T09:44:11;26.90;92.00
4090;DHT22;2059;48.538;12.146;2022-07-04T09:49:13;27.40;92.40
4090;DHT22;2059;48.538;12.146;2022-07-04T09:54:18;27.70;91.10
4090;DHT22;2059;48.538;12.146;2022-07-04T09:59:22;27.50;91.20
4090;DHT22;2059;48.538;12.146;2022-07-04T10:04:41;27.60;91.30
4090;DHT22;2059;48.538;12.146;2022-07-04T10:09:44;27.90;90.50
4090;DHT22;2059;48.538;12.146;2022-07-04T10:14:47;28.00;91.00
4090;DHT22;2059;48.538;12.146;2022-07-04T10:19:49;28.30;90.20
4090;DHT22;2059;48.538;12.146;2022-07-04T10:24:53;28.60;89.10
4090;DHT22;2059;48.538;12.146;2022-07-04T10:29:57;28.60;88.30
4090;DHT22;2059;48.538;12.146;2022-07-04T10:34:59;28.60;87.40
4090;DHT22;2059;48.538;12.146;2022-07-04T10:40:02;28.90;88.10
4090;DHT22;2059;48.538;12.146;2022-07-04T10:45:07;29.10;85.50
4090;DHT22;2059;48.538;12.146;2022-07-04T10:50:10;29.20;85.30
4090;DHT22;2059;48.538;12.146;2022-07-04T10:55:12;29.50;84.70
4090;DHT22;2059;48.538;12.146;2022-07-04T11:00:16;29.80;84.40
4090;DHT22;2059;48.538;12.146;2022-07-04T11:05:30;29.30;82.70
4090;DHT22;2059;48.538;12.146;2022-07-04T11:10:37;29.30;81.30
4090;DHT22;2059;48.538;12.146;2022-07-04T11:16:00;29.30;82.40
4090;DHT22;2059;48.538;12.146;2022-07-04T11:21:02;29.30;81.70
4090;DHT22;2059;48.538;12.146;2022-07-04T11:26:04;29.20;81.00
4090;DHT22;2059;48.538;12.146;2022-07-04T11:31:07;29.40;80.90
4090;DHT22;2059;48.538;12.146;2022-07-04T11:36:12;29.50;79.10
4090;DHT22;2059;48.538;12.146;2022-07-04T11:41:15;29.40;79.90
4090;DHT22;2059;48.538;12.146;2022-07-04T11:46:36;29.30;79.40
4090;DHT22;2059;48.538;12.146;2022-07-04T11:51:42;29.30;77.80
4090;DHT22;2059;48.538;12.146;2022-07-04T11:56:44;29.50;78.80
4090;DHT22;2059;48.538;12.146;2022-07-04T12:01:47;29.30;76.50
4090;DHT22;2059;48.538;12.146;2022-07-04T12:06:49;29.30;77.70
4090;DHT22;2059;48.538;12.146;2022-07-04T12:11:56;29.30;77.50
4090;DHT22;2059;48.538;12.146;2022-07-04T12:17:14;29.00;78.30
4090;DHT22;2059;48.538;12.146;2022-07-04T12:27:51;29.20;79.30
4090;DHT22;2059;48.538;12.146;2022-07-04T12:32:57;29.20;77.60
4090;DHT22;2059;48.538;12.146;2022-07-04T12:38:01;29.40;77.70
4090;DHT22;2059;48.538;12.146;2022-07-04T12:43:04;29.60;77.30
4090;DHT22;2059;48.538;12.146;2022-07-04T12:48:14;29.60;76.90
4090;DHT22;2059;48.538;12.146;2022-07-04T12:53:17;29.80;76.90
4090;DHT22;2059;48.538;12.146;2022-07-04T12:58:19;29.50;76.10
4090;DHT22;2059;48.538;12.146;2022-07-04T13:03:22;29.50;76.20
4090;DHT22;2059;48.538;12.146;2022-07-04T13:08:24;29.50;77.50
4090;DHT22;2059;48.538;12.146;2022-07-04T13:13:26;29.50;77.80
4090;DHT22;2059;48.538;12.146;2022-07-04T13:18:29;29.80;77.70
4090;DHT22;2059;48.538;12.146;2022-07-04T13:23:31;30.00;77.40
4090;DHT22;2059;48.538;12.146;2022-07-04T13:28:33;29.60;76.30
4090;DHT22;2059;48.538;12.146;2022-07-04T13:33:36;29.30;76.80
4090;DHT22;2059;48.538;12.146;2022-07-04T13:38:38;29.10;77.20
4090;DHT22;2059;48.538;12.146;2022-07-04T13:43:40;29.10;78.20
4090;DHT22;2059;48.538;12.146;2022-07-04T13:48:44;29.20;77.80
4090;DHT22;2059;48.538;12.146;2022-07-04T13:53:46;29.50;75.80
4090;DHT22;2059;48.538;12.146;2022-07-04T13:58:48;29.40;73.60
4090;DHT22;2059;48.538;12.146;2022-07-04T14:03:51;29.30;74.40
4090;DHT22;2059;48.538;12.146;2022-07-04T14:08:53;29.60;73.90
4090;DHT22;2059;48.538;12.146;2022-07-04T14:13:55;29.60;74.70
4090;DHT22;2059;48.538;12.146;2022-07-04T14:18:59;29.70;76.80
4090;DHT22;2059;48.538;12.146;2022-07-04T14:24:00;29.90;75.70
4090;DHT22;2059;48.538;12.146;2022-07-04T14:29:02;29.80;75.80
4090;DHT22;2059;48.538;12.146;2022-07-04T14:34:06;29.60;74.50
4090;DHT22;2059;48.538;12.146;2022-07-04T14:39:10;29.50;74.60
4090;DHT22;2059;48.538;12.146;2022-07-04T14:44:12;29.80;74.30
4090;DHT22;2059;48.538;12.146;2022-07-04T14:49:15;30.00;73.00
4090;DHT22;2059;48.538;12.146;2022-07-04T14:54:17;30.20;71.70
4090;DHT22;2059;48.538;12.146;2022-07-04T14:59:19;30.30;71.60
4090;DHT22;2059;48.538;12.146;2022-07-04T15:04:23;30.30;74.00
4090;DHT22;2059;48.538;12.146;2022-07-04T15:09:24;30.10;73.60
4090;DHT22;2059;48.538;12.146;2022-07-04T15:14:26;30.00;72.40
4090;DHT22;2059;48.538;12.146;2022-07-04T15:19:30;29.70;72.80
4090;DHT22;2059;48.538;12.146;2022-07-04T15:24:51;29.40;72.60
4090;DHT22;2059;48.538;12.146;2022-07-04T15:29:53;29.10;73.10
4090;DHT22;2059;48.538;12.146;2022-07-04T15:34:56;29.10;75.40
4090;DHT22;2059;48.538;12.146;2022-07-04T15:39:58;29.70;73.70
4090;DHT22;2059;48.538;12.146;2022-07-04T15:45:00;30.30;74.90
4090;DHT22;2059;48.538;12.146;2022-07-04T15:50:05;30.40;72.20
4090;DHT22;2059;48.538;12.146;2022-07-04T15:55:08;30.10;72.00
4090;DHT22;2059;48.538;12.146;2022-07-04T16:00:11;30.30;72.70
4090;DHT22;2059;48.538;12.146;2022-07-04T16:05:14;31.30;76.20
4090;DHT22;2059;48.538;12.146;2022-07-04T16:10:16;31.40;69.30
4090;DHT22;2059;48.538;12.146;2022-07-04T16:15:18;31.10;68.30
4090;DHT22;2059;48.538;12.146;2022-07-04T16:20:22;30.80;71.40
4090;DHT22;2059;48.538;12.146;2022-07-04T16:25:23;31.40;70.60
4090;DHT22;2059;48.538;12.146;2022-07-04T16:30:25;31.00;70.00
4090;DHT22;2059;48.538;12.146;2022-07-04T16:35:29;30.20;69.90
4090;DHT22;2059;48.538;12.146;2022-07-04T16:40:31;29.80;71.40
4090;DHT22;2059;48.538;12.146;2022-07-04T16:45:33;29.60;72.50
4090;DHT22;2059;48.538;12.146;2022-07-04T16:50:36;29.50;73.00
4090;DHT22;2059;48.538;12.146;2022-07-04T16:55:39;30.50;72.30
4090;DHT22;2059;48.538;12.146;2022-07-04T17:00:42;31.40;69.40
4090;DHT22;2059;48.538;12.146;2022-07-04T17:05:45;30.80;70.00
4090;DHT22;2059;48.538;12.146;2022-07-04T17:10:47;30.20;71.10
4090;DHT22;2059;48.538;12.146;2022-07-04T17:15:49;29.60;71.20
4090;DHT22;2059;48.538;12.146;2022-07-04T17:20:52;29.20;71.70
4090;DHT22;2059;48.538;12.146;2022-07-04T17:25:55;29.00;72.70
4090;DHT22;2059;48.538;12.146;2022-07-04T17:30:58;28.70;73.40
4090;DHT22;2059;48.538;12.146;2022-07-04T17:36:01;28.50;73.70
4090;DHT22;2059;48.538;12.146;2022-07-04T17:41:03;28.40;74.50
4090;DHT22;2059;48.538;12.146;2022-07-04T17:46:22;28.20;75.00
4090;DHT22;2059;48.538;12.146;2022-07-04T17:51:26;28.10;75.80
4090;DHT22;2059;48.538;12.146;2022-07-04T17:56:28;28.10;76.70
4090;DHT22;2059;48.538;12.146;2022-07-04T18:01:30;28.00;77.20
4090;DHT22;2059;48.538;12.146;2022-07-04T18:06:33;27.90;77.10
4090;DHT22;2059;48.538;12.146;2022-07-04T18:11:35;27.80;77.80
4090;DHT22;2059;48.538;12.146;2022-07-04T18:16:38;27.70;77.30
4090;DHT22;2059;48.538;12.146;2022-07-04T18:21:41;27.60;77.10
4090;DHT22;2059;48.538;12.146;2022-07-04T18:26:43;27.50;76.80
4090;DHT22;2059;48.538;12.146;2022-07-04T18:31:49;27.40;77.50
4090;DHT22;2059;48.538;12.146;2022-07-04T18:36:53;27.40;78.40
4090;DHT22;2059;48.538;12.146;2022-07-04T18:41:55;27.30;79.30
4090;DHT22;2059;48.538;12.146;2022-07-04T18:47:14;27.20;79.30
4090;DHT22;2059;48.538;12.146;2022-07-04T18:52:17;27.10;80.00
4090;DHT22;2059;48.538;12.146;2022-07-04T18:57:19;27.20;80.90
4090;DHT22;2059;48.538;12.146;2022-07-04T19:02:21;27.00;80.90
4090;DHT22;2059;48.538;12.146;2022-07-04T19:07:24;26.90;81.00
4090;DHT22;2059;48.538;12.146;2022-07-04T19:12:27;26.80;81.10
4090;DHT22;2059;48.538;12.146;2022-07-04T19:17:28;26.70;81.40
4090;DHT22;2059;48.538;12.146;2022-07-04T19:22:32;26.60;82.30
4090;DHT22;2059;48.538;12.146;2022-07-04T19:27:35;26.60;82.40
4090;DHT22;2059;48.538;12.146;2022-07-04T19:32:38;26.50;81.90
4090;DHT22;2059;48.538;12.146;2022-07-04T19:37:41;26.50;82.40
4090;DHT22;2059;48.538;12.146;2022-07-04T19:42:43;26.40;82.80
4090;DHT22;2059;48.538;12.146;2022-07-04T19:47:45;26.30;82.90
4090;DHT22;2059;48.538;12.146;2022-07-04T19:52:50;26.30;82.90
4090;DHT22;2059;48.538;12.146;2022-07-04T19:57:51;26.30;82.60
4090;DHT22;2059;48.538;12.146;2022-07-04T20:02:54;26.20;83.30
4090;DHT22;2059;48.538;12.146;2022-07-04T20:07:58;26.20;83.20
4090;DHT22;2059;48.538;12.146;2022-07-04T20:13:01;26.10;83.50
4090;DHT22;2059;48.538;12.146;2022-07-04T20:18:03;26.10;83.90
4090;DHT22;2059;48.538;12.146;2022-07-04T20:23:06;26.00;84.30
4090;DHT22;2059;48.538;12.146;2022-07-04T20:28:08;26.00;85.40
4090;DHT22;2059;48.538;12.146;2022-07-04T20:33:12;25.80;86.80
4090;DHT22;2059;48.538;12.146;2022-07-04T20:38:15;25.80;89.00
4090;DHT22;2059;48.538;12.146;2022-07-04T20:43:17;25.70;90.80
4090;DHT22;2059;48.538;12.146;2022-07-04T20:48:19;25.50;91.50
4090;DHT22;2059;48.538;12.146;2022-07-04T20:53:22;25.10;92.30
4090;DHT22;2059;48.538;12.146;2022-07-04T20:58:25;24.60;93.80
4090;DHT22;2059;48.538;12.146;2022-07-04T21:03:26;24.00;94.90
4090;DHT22;2059;48.538;12.146;2022-07-04T21:08:30;23.60;96.30
4090;DHT22;2059;48.538;12.146;2022-07-04T21:13:32;23.20;97.90
4090;DHT22;2059;48.538;12.146;2022-07-04T21:18:34;22.90;99.10
4090;DHT22;2059;48.538;12.146;2022-07-04T21:23:37;22.60;99.90
4090;DHT22;2059;48.538;12.146;2022-07-04T21:28:39;22.30;99.90
4090;DHT22;2059;48.538;12.146;2022-07-04T21:33:41;22.40;99.90
4090;DHT22;2059;48.538;12.146;2022-07-04T21:38:44;22.10;99.90
4090;DHT22;2059;48.538;12.146;2022-07-04T21:43:46;22.00;99.90
4090;DHT22;2059;48.538;12.146;2022-07-04T21:48:49;22.00;99.90
4090;DHT22;2059;48.538;12.146;2022-07-04T21:53:52;21.90;99.90
4090;DHT22;2059;48.538;12.146;2022-07-04T21:58:54;21.90;99.90
4090;DHT22;2059;48.538;12.146;2022-07-04T22:03:56;21.80;99.90
4090;DHT22;2059;48.538;12.146;2022-07-04T22:09:00;22.00;99.90
4090;DHT22;2059;48.538;12.146;2022-07-04T22:14:01;21.90;99.90
4090;DHT22;2059;48.538;12.146;2022-07-04T22:19:03;21.90;99.90
4090;DHT22;2059;48.538;12.146;2022-07-04T22:24:07;21.90;99.90
4090;DHT22;2059;48.538;12.146;2022-07-04T22:29:09;21.70;99.90
4090;DHT22;2059;48.538;12.146;2022-07-04T22:34:11;21.60;99.90
4090;DHT22;2059;48.538;12.146;2022-07-04T22:39:14;21.70;99.90
4090;DHT22;2059;48.538;12.146;2022-07-04T22:44:16;21.80;99.90
4090;DHT22;2059;48.538;12.146;2022-07-04T22:49:18;21.70;99.90
4090;DHT22;2059;48.538;12.146;2022-07-04T22:54:21;21.70;99.90
4090;DHT22;2059;48.538;12.146;2022-07-04T22:59:41;21.80;99.90
4090;DHT22;2059;48.538;12.146;2022-07-04T23:04:43;21.60;99.90
4090;DHT22;2059;48.538;12.146;2022-07-04T23:09:47;21.60;99.90
4090;DHT22;2059;48.538;12.146;2022-07-04T23:14:49;21.60;99.90
4090;DHT22;2059;48.538;12.146;2022-07-04T23:19:51;21.60;99.90
4090;DHT22;2059;48.538;12.146;2022-07-04T23:24:54;21.60;99.90
4090;DHT22;2059;48.538;12.146;2022-07-04T23:29:56;21.50;99.90
4090;DHT22;2059;48.538;12.146;2022-07-04T23:34:58;21.50;99.90
4090;DHT22;2059;48.538;12.146;2022-07-04T23:40:01;21.50;99.90
4090;DHT22;2059;48.538;12.146;2022-07-04T23:45:04;21.50;99.90
4090;DHT22;2059;48.538;12.146;2022-07-04T23:50:07;21.50;99.90
4090;DHT22;2059;48.538;12.146;2022-07-04T23:55:11;21.40;99.90
